sensor_id;sensor_type;location;lat;lon;timestamp;P1;durP1;ratioP1;P2;durP2;ratioP2
46318;SDS011;32042;50.916;2.926;2024-03-23T00:55:38;10.53;;;2.63;;
46318;SDS011;32042;50.916;2.926;2024-03-23T00:58:03;11.37;;;2.93;;
46318;SDS011;32042;50.916;2.926;2024-03-23T01:00:29;10.87;;;3.23;;
46318;SDS011;32042;50.916;2.926;2024-03-23T01:02:55;8.67;;;2.30;;
46318;SDS011;32042;50.916;2.926;2024-03-23T01:05:20;8.90;;;2.47;;
46318;SDS011;32042;50.916;2.926;2024-03-23T01:07:46;6.47;;;2.47;;
46318;SDS011;32042;50.916;2.926;2024-03-23T01:10:13;7.23;;;2.60;;
46318;SDS011;32042;50.916;2.926;2024-03-23T01:12:39;5.70;;;2.00;;
46318;SDS011;32042;50.916;2.926;2024-03-23T01:15:04;3.70;;;2.00;;
46318;SDS011;32042;50.916;2.926;2024-03-23T01:17:31;6.70;;;2.10;;
46318;SDS011;32042;50.916;2.926;2024-03-23T01:19:57;8.77;;;2.73;;
46318;SDS011;32042;50.916;2.926;2024-03-23T01:22:22;12.63;;;3.03;;
46318;SDS011;32042;50.916;2.926;2024-03-23T01:24:48;10.30;;;2.83;;
46318;SDS011;32042;50.916;2.926;2024-03-23T01:27:14;11.20;;;2.30;;
46318;SDS011;32042;50.916;2.926;2024-03-23T01:29:40;9.33;;;2.40;;
46318;SDS011;32042;50.916;2.926;2024-03-23T01:32:05;7.13;;;2.00;;
46318;SDS011;32042;50.916;2.926;2024-03-23T01:34:32;9.10;;;2.40;;
46318;SDS011;32042;50.916;2.926;2024-03-23T01:36:57;9.90;;;1.90;;
46318;SDS011;32042;50.916;2.926;2024-03-23T01:39:23;5.70;;;2.10;;
46318;SDS011;32042;50.916;2.926;2024-03-23T01:41:49;13.37;;;2.30;;
46318;SDS011;32042;50.916;2.926;2024-03-23T01:44:16;13.30;;;2.47;;
46318;SDS011;32042;50.916;2.926;2024-03-23T01:46:42;4.43;;;1.90;;
46318;SDS011;32042;50.916;2.926;2024-03-23T01:49:09;9.73;;;1.97;;
46318;SDS011;32042;50.916;2.926;2024-03-23T01:51:35;6.70;;;1.70;;
46318;SDS011;32042;50.916;2.926;2024-03-23T01:54:02;5.60;;;2.20;;
46318;SDS011;32042;50.916;2.926;2024-03-23T01:56:29;8.53;;;1.90;;
46318;SDS011;32042;50.916;2.926;2024-03-23T01:58:58;8.97;;;2.20;;
46318;SDS011;32042;50.916;2.926;2024-03-23T02:01:23;7.00;;;2.00;;
46318;SDS011;32042;50.916;2.926;2024-03-23T02:03:49;8.63;;;2.83;;
46318;SDS011;32042;50.916;2.926;2024-03-23T02:06:15;5.03;;;1.77;;
46318;SDS011;32042;50.916;2.926;2024-03-23T02:08:41;7.23;;;1.70;;
46318;SDS011;32042;50.916;2.926;2024-03-23T02:11:07;8.33;;;1.83;;
46318;SDS011;32042;50.916;2.926;2024-03-23T02:13:33;6.97;;;2.00;;
46318;SDS011;32042;50.916;2.926;2024-03-23T02:15:59;9.47;;;1.90;;
46318;SDS011;32042;50.916;2.926;2024-03-23T02:18:25;6.07;;;1.90;;
46318;SDS011;32042;50.916;2.926;2024-03-23T02:20:50;5.13;;;1.80;;
46318;SDS011;32042;50.916;2.926;2024-03-23T02:23:17;8.53;;;2.03;;
46318;SDS011;32042;50.916;2.926;2024-03-23T02:25:43;6.83;;;1.80;;
46318;SDS011;32042;50.916;2.926;2024-03-23T02:28:09;7.23;;;1.83;;
46318;SDS011;32042;50.916;2.926;2024-03-23T02:30:35;8.63;;;2.43;;
46318;SDS011;32042;50.916;2.926;2024-03-23T02:33:00;5.83;;;2.33;;
46318;SDS011;32042;50.916;2.926;2024-03-23T02:35:26;5.80;;;1.90;;
46318;SDS011;32042;50.916;2.926;2024-03-23T02:37:52;5.13;;;1.40;;
46318;SDS011;32042;50.916;2.926;2024-03-23T02:40:19;7.63;;;1.30;;
46318;SDS011;32042;50.916;2.926;2024-03-23T02:42:45;7.07;;;1.67;;
46318;SDS011;32042;50.916;2.926;2024-03-23T02:45:11;6.63;;;1.67;;
46318;SDS011;32042;50.916;2.926;2024-03-23T02:47:37;9.37;;;2.07;;
46318;SDS011;32042;50.916;2.926;2024-03-23T02:50:03;5.70;;;2.00;;
46318;SDS011;32042;50.916;2.926;2024-03-23T02:52:29;9.70;;;2.30;;
46318;SDS011;32042;50.916;2.926;2024-03-23T02:54:56;7.53;;;1.90;;
46318;SDS011;32042;50.916;2.926;2024-03-23T02:57:22;6.17;;;1.53;;
46318;SDS011;32042;50.916;2.926;2024-03-23T02:59:47;5.40;;;1.60;;
46318;SDS011;32042;50.916;2.926;2024-03-23T03:02:13;7.57;;;2.43;;
46318;SDS011;32042;50.916;2.926;2024-03-23T03:04:40;7.90;;;1.93;;
46318;SDS011;32042;50.916;2.926;2024-03-23T03:07:06;6.33;;;1.90;;
46318;SDS011;32042;50.916;2.926;2024-03-23T03:09:33;6.03;;;1.80;;
46318;SDS011;32042;50.916;2.926;2024-03-23T03:12:00;10.60;;;1.90;;
46318;SDS011;32042;50.916;2.926;2024-03-23T03:14:27;8.90;;;2.07;;
46318;SDS011;32042;50.916;2.926;2024-03-23T03:16:53;15.37;;;2.50;;
46318;SDS011;32042;50.916;2.926;2024-03-23T03:19:19;9.80;;;2.17;;
46318;SDS011;32042;50.916;2.926;2024-03-23T03:21:45;9.70;;;2.27;;
46318;SDS011;32042;50.916;2.926;2024-03-23T03:24:10;5.03;;;2.00;;
46318;SDS011;32042;50.916;2.926;2024-03-23T03:26:36;7.43;;;2.63;;
46318;SDS011;32042;50.916;2.926;2024-03-23T03:29:02;9.07;;;2.17;;
46318;SDS011;32042;50.916;2.926;2024-03-23T03:31:28;9.37;;;1.80;;
46318;SDS011;32042;50.916;2.926;2024-03-23T03:33:53;6.40;;;2.30;;
46318;SDS011;32042;50.916;2.926;2024-03-23T03:36:19;9.90;;;2.07;;
46318;SDS011;32042;50.916;2.926;2024-03-23T03:38:46;8.60;;;2.03;;
46318;SDS011;32042;50.916;2.926;2024-03-23T03:41:11;9.33;;;1.60;;
46318;SDS011;32042;50.916;2.926;2024-03-23T03:43:37;5.37;;;1.80;;
46318;SDS011;32042;50.916;2.926;2024-03-23T03:46:03;5.27;;;1.80;;
46318;SDS011;32042;50.916;2.926;2024-03-23T03:48:29;6.97;;;1.80;;
46318;SDS011;32042;50.916;2.926;2024-03-23T03:50:55;11.93;;;2.27;;
46318;SDS011;32042;50.916;2.926;2024-03-23T03:53:21;11.97;;;1.60;;
46318;SDS011;32042;50.916;2.926;2024-03-23T03:55:47;10.03;;;1.67;;
46318;SDS011;32042;50.916;2.926;2024-03-23T03:58:12;6.30;;;1.70;;
46318;SDS011;32042;50.916;2.926;2024-03-23T04:00:38;9.07;;;2.03;;
46318;SDS011;32042;50.916;2.926;2024-03-23T04:03:04;6.93;;;1.97;;
46318;SDS011;32042;50.916;2.926;2024-03-23T04:05:30;5.77;;;1.77;;
46318;SDS011;32042;50.916;2.926;2024-03-23T04:07:55;5.23;;;1.50;;
46318;SDS011;32042;50.916;2.926;2024-03-23T04:10:21;6.43;;;1.73;;
46318;SDS011;32042;50.916;2.926;2024-03-23T04:12:47;7.30;;;2.03;;
46318;SDS011;32042;50.916;2.926;2024-03-23T04:15:13;7.60;;;1.80;;
46318;SDS011;32042;50.916;2.926;2024-03-23T04:17:39;8.97;;;1.77;;
46318;SDS011;32042;50.916;2.926;2024-03-23T04:20:07;7.73;;;2.27;;
46318;SDS011;32042;50.916;2.926;2024-03-23T04:22:36;8.57;;;2.10;;
46318;SDS011;32042;50.916;2.926;2024-03-23T04:25:02;7.10;;;1.93;;
46318;SDS011;32042;50.916;2.926;2024-03-23T04:27:34;10.30;;;2.07;;
46318;SDS011;32042;50.916;2.926;2024-03-23T04:30:00;8.20;;;2.53;;
46318;SDS011;32042;50.916;2.926;2024-03-23T04:32:28;9.47;;;1.60;;
46318;SDS011;32042;50.916;2.926;2024-03-23T04:34:54;4.40;;;1.37;;
46318;SDS011;32042;50.916;2.926;2024-03-23T04:37:20;7.93;;;2.50;;
46318;SDS011;32042;50.916;2.926;2024-03-23T04:39:46;8.37;;;1.67;;
46318;SDS011;32042;50.916;2.926;2024-03-23T04:42:14;6.40;;;1.30;;
46318;SDS011;32042;50.916;2.926;2024-03-23T04:44:43;8.17;;;1.57;;
46318;SDS011;32042;50.916;2.926;2024-03-23T04:47:10;8.97;;;1.97;;
46318;SDS011;32042;50.916;2.926;2024-03-23T04:49:36;10.10;;;1.87;;
46318;SDS011;32042;50.916;2.926;2024-03-23T04:52:05;9.97;;;1.63;;
46318;SDS011;32042;50.916;2.926;2024-03-23T04:54:31;7.37;;;1.97;;
46318;SDS011;32042;50.916;2.926;2024-03-23T04:56:59;10.43;;;2.67;;
46318;SDS011;32042;50.916;2.926;2024-03-23T04:59:25;8.00;;;1.83;;
46318;SDS011;32042;50.916;2.926;2024-03-23T05:01:51;6.90;;;1.63;;
46318;SDS011;32042;50.916;2.926;2024-03-23T05:04:17;6.07;;;1.50;;
46318;SDS011;32042;50.916;2.926;2024-03-23T05:06:43;8.13;;;1.47;;
46318;SDS011;32042;50.916;2.926;2024-03-23T05:09:11;9.40;;;1.70;;
46318;SDS011;32042;50.916;2.926;2024-03-23T05:11:40;5.83;;;1.50;;
46318;SDS011;32042;50.916;2.926;2024-03-23T05:14:07;11.67;;;2.00;;
46318;SDS011;32042;50.916;2.926;2024-03-23T05:16:33;8.40;;;1.47;;
46318;SDS011;32042;50.916;2.926;2024-03-23T05:18:59;7.77;;;1.73;;
46318;SDS011;32042;50.916;2.926;2024-03-23T05:21:25;9.30;;;1.90;;
46318;SDS011;32042;50.916;2.926;2024-03-23T05:23:50;7.20;;;1.40;;
46318;SDS011;32042;50.916;2.926;2024-03-23T05:26:16;7.30;;;1.30;;
46318;SDS011;32042;50.916;2.926;2024-03-23T05:28:42;4.07;;;1.40;;
46318;SDS011;32042;50.916;2.926;2024-03-23T05:31:08;17.13;;;2.57;;
46318;SDS011;32042;50.916;2.926;2024-03-23T05:33:35;4.33;;;1.60;;
46318;SDS011;32042;50.916;2.926;2024-03-23T05:36:03;9.73;;;1.90;;
46318;SDS011;32042;50.916;2.926;2024-03-23T05:38:29;6.03;;;1.63;;
46318;SDS011;32042;50.916;2.926;2024-03-23T05:40:55;5.90;;;1.70;;
46318;SDS011;32042;50.916;2.926;2024-03-23T05:43:25;7.60;;;2.77;;
46318;SDS011;32042;50.916;2.926;2024-03-23T05:45:55;5.70;;;1.73;;
46318;SDS011;32042;50.916;2.926;2024-03-23T05:48:21;6.20;;;1.83;;
46318;SDS011;32042;50.916;2.926;2024-03-23T05:50:48;8.83;;;1.60;;
46318;SDS011;32042;50.916;2.926;2024-03-23T05:53:15;5.57;;;2.20;;
46318;SDS011;32042;50.916;2.926;2024-03-23T05:55:41;11.00;;;1.40;;
46318;SDS011;32042;50.916;2.926;2024-03-23T05:58:07;6.30;;;2.00;;
46318;SDS011;32042;50.916;2.926;2024-03-23T06:00:33;7.90;;;1.73;;
46318;SDS011;32042;50.916;2.926;2024-03-23T06:02:59;6.23;;;1.33;;
46318;SDS011;32042;50.916;2.926;2024-03-23T06:05:25;7.80;;;1.67;;
46318;SDS011;32042;50.916;2.926;2024-03-23T06:07:51;8.43;;;2.00;;
46318;SDS011;32042;50.916;2.926;2024-03-23T06:10:18;4.40;;;1.47;;
46318;SDS011;32042;50.916;2.926;2024-03-23T06:12:47;7.67;;;1.53;;
46318;SDS011;32042;50.916;2.926;2024-03-23T06:15:14;6.30;;;1.70;;
46318;SDS011;32042;50.916;2.926;2024-03-23T06:17:40;7.60;;;2.03;;
46318;SDS011;32042;50.916;2.926;2024-03-23T06:20:05;5.90;;;1.43;;
46318;SDS011;32042;50.916;2.926;2024-03-23T06:22:32;8.47;;;1.77;;
46318;SDS011;32042;50.916;2.926;2024-03-23T06:24:58;2.00;;;1.03;;
46318;SDS011;32042;50.916;2.926;2024-03-23T06:27:24;6.30;;;1.40;;
46318;SDS011;32042;50.916;2.926;2024-03-23T06:29:50;11.80;;;1.93;;
46318;SDS011;32042;50.916;2.926;2024-03-23T06:32:16;6.10;;;1.63;;
46318;SDS011;32042;50.916;2.926;2024-03-23T06:34:42;3.77;;;1.50;;
46318;SDS011;32042;50.916;2.926;2024-03-23T06:37:08;6.97;;;1.57;;
46318;SDS011;32042;50.916;2.926;2024-03-23T06:39:35;2.90;;;1.13;;
46318;SDS011;32042;50.916;2.926;2024-03-23T06:42:02;3.37;;;1.30;;
46318;SDS011;32042;50.916;2.926;2024-03-23T06:44:28;8.50;;;1.70;;
46318;SDS011;32042;50.916;2.926;2024-03-23T06:46:54;9.43;;;1.43;;
46318;SDS011;32042;50.916;2.926;2024-03-23T06:49:20;4.33;;;1.13;;
46318;SDS011;32042;50.916;2.926;2024-03-23T06:51:45;2.57;;;1.40;;
46318;SDS011;32042;50.916;2.926;2024-03-23T06:54:11;7.97;;;2.40;;
46318;SDS011;32042;50.916;2.926;2024-03-23T06:56:37;21.40;;;6.27;;
46318;SDS011;32042;50.916;2.926;2024-03-23T06:59:03;7.87;;;3.00;;
46318;SDS011;32042;50.916;2.926;2024-03-23T07:01:29;7.93;;;2.10;;
46318;SDS011;32042;50.916;2.926;2024-03-23T07:03:55;8.43;;;3.47;;
46318;SDS011;32042;50.916;2.926;2024-03-23T07:06:21;6.67;;;1.90;;
46318;SDS011;32042;50.916;2.926;2024-03-23T07:08:49;7.07;;;1.93;;
46318;SDS011;32042;50.916;2.926;2024-03-23T07:11:18;3.77;;;1.40;;
46318;SDS011;32042;50.916;2.926;2024-03-23T07:13:45;4.67;;;1.37;;
46318;SDS011;32042;50.916;2.926;2024-03-23T07:16:11;6.10;;;1.40;;
46318;SDS011;32042;50.916;2.926;2024-03-23T07:18:38;2.63;;;1.10;;
46318;SDS011;32042;50.916;2.926;2024-03-23T07:21:04;2.13;;;0.90;;
46318;SDS011;32042;50.916;2.926;2024-03-23T07:23:31;6.80;;;1.30;;
46318;SDS011;32042;50.916;2.926;2024-03-23T07:26:04;8.63;;;2.60;;
46318;SDS011;32042;50.916;2.926;2024-03-23T07:28:30;1.83;;;0.87;;
46318;SDS011;32042;50.916;2.926;2024-03-23T07:31:05;3.83;;;1.20;;
46318;SDS011;32042;50.916;2.926;2024-03-23T07:33:36;3.37;;;0.70;;
46318;SDS011;32042;50.916;2.926;2024-03-23T07:36:03;3.87;;;0.80;;
46318;SDS011;32042;50.916;2.926;2024-03-23T07:38:29;4.27;;;1.27;;
46318;SDS011;32042;50.916;2.926;2024-03-23T07:41:14;8.27;;;2.07;;
46318;SDS011;32042;50.916;2.926;2024-03-23T07:43:45;9.17;;;1.43;;
46318;SDS011;32042;50.916;2.926;2024-03-23T07:46:11;4.47;;;1.27;;
46318;SDS011;32042;50.916;2.926;2024-03-23T07:48:38;1.50;;;0.70;;
46318;SDS011;32042;50.916;2.926;2024-03-23T07:51:09;11.73;;;1.20;;
46318;SDS011;32042;50.916;2.926;2024-03-23T07:53:36;6.63;;;1.87;;
46318;SDS011;32042;50.916;2.926;2024-03-23T07:56:05;4.80;;;0.80;;
46318;SDS011;32042;50.916;2.926;2024-03-23T07:58:31;5.33;;;1.20;;
46318;SDS011;32042;50.916;2.926;2024-03-23T08:01:03;6.00;;;1.20;;
46318;SDS011;32042;50.916;2.926;2024-03-23T08:03:34;3.53;;;0.70;;
46318;SDS011;32042;50.916;2.926;2024-03-23T08:06:08;6.53;;;1.57;;
46318;SDS011;32042;50.916;2.926;2024-03-23T08:08:35;5.37;;;1.40;;
46318;SDS011;32042;50.916;2.926;2024-03-23T08:11:01;0.50;;;0.50;;
46318;SDS011;32042;50.916;2.926;2024-03-23T08:13:26;5.27;;;1.47;;
46318;SDS011;32042;50.916;2.926;2024-03-23T08:15:56;3.37;;;1.17;;
46318;SDS011;32042;50.916;2.926;2024-03-23T08:18:25;8.23;;;1.07;;
46318;SDS011;32042;50.916;2.926;2024-03-23T08:21:00;4.03;;;1.30;;
46318;SDS011;32042;50.916;2.926;2024-03-23T08:23:28;3.97;;;0.90;;
46318;SDS011;32042;50.916;2.926;2024-03-23T08:26:01;5.97;;;1.13;;
46318;SDS011;32042;50.916;2.926;2024-03-23T08:28:27;2.63;;;1.40;;
46318;SDS011;32042;50.916;2.926;2024-03-23T08:30:54;3.33;;;1.30;;
46318;SDS011;32042;50.916;2.926;2024-03-23T08:33:20;5.63;;;2.37;;
46318;SDS011;32042;50.916;2.926;2024-03-23T08:35:56;7.30;;;1.30;;
46318;SDS011;32042;50.916;2.926;2024-03-23T08:38:26;5.63;;;1.87;;
46318;SDS011;32042;50.916;2.926;2024-03-23T08:40:59;3.30;;;0.93;;
46318;SDS011;32042;50.916;2.926;2024-03-23T08:43:30;4.13;;;1.40;;
46318;SDS011;32042;50.916;2.926;2024-03-23T08:46:04;4.47;;;1.00;;
46318;SDS011;32042;50.916;2.926;2024-03-23T08:48:40;5.00;;;1.13;;
46318;SDS011;32042;50.916;2.926;2024-03-23T08:51:11;1.63;;;0.60;;
46318;SDS011;32042;50.916;2.926;2024-03-23T08:53:38;1.23;;;0.57;;
46318;SDS011;32042;50.916;2.926;2024-03-23T08:56:05;5.17;;;1.37;;
46318;SDS011;32042;50.916;2.926;2024-03-23T08:58:32;3.63;;;1.40;;
46318;SDS011;32042;50.916;2.926;2024-03-23T09:01:16;1.70;;;0.63;;
46318;SDS011;32042;50.916;2.926;2024-03-23T09:03:42;2.23;;;1.03;;
46318;SDS011;32042;50.916;2.926;2024-03-23T09:06:08;9.50;;;1.63;;
46318;SDS011;32042;50.916;2.926;2024-03-23T09:08:36;2.97;;;1.03;;
46318;SDS011;32042;50.916;2.926;2024-03-23T09:11:09;3.87;;;1.00;;
46318;SDS011;32042;50.916;2.926;2024-03-23T09:13:36;6.30;;;1.10;;
46318;SDS011;32042;50.916;2.926;2024-03-23T09:16:03;8.30;;;1.50;;
46318;SDS011;32042;50.916;2.926;2024-03-23T09:18:31;4.20;;;1.13;;
46318;SDS011;32042;50.916;2.926;2024-03-23T09:20:58;6.83;;;1.40;;
46318;SDS011;32042;50.916;2.926;2024-03-23T09:23:23;9.37;;;1.60;;
46318;SDS011;32042;50.916;2.926;2024-03-23T09:25:49;5.20;;;1.10;;
46318;SDS011;32042;50.916;2.926;2024-03-23T09:28:15;5.40;;;1.67;;
46318;SDS011;32042;50.916;2.926;2024-03-23T09:30:40;8.37;;;1.40;;
46318;SDS011;32042;50.916;2.926;2024-03-23T09:33:09;5.43;;;1.33;;
46318;SDS011;32042;50.916;2.926;2024-03-23T09:35:39;6.30;;;1.17;;
46318;SDS011;32042;50.916;2.926;2024-03-23T09:38:05;5.87;;;1.17;;
46318;SDS011;32042;50.916;2.926;2024-03-23T09:40:32;4.57;;;1.07;;
46318;SDS011;32042;50.916;2.926;2024-03-23T09:42:58;2.20;;;0.70;;
46318;SDS011;32042;50.916;2.926;2024-03-23T09:45:28;4.53;;;1.30;;
46318;SDS011;32042;50.916;2.926;2024-03-23T09:47:55;4.10;;;1.20;;
46318;SDS011;32042;50.916;2.926;2024-03-23T09:50:21;3.10;;;1.10;;
46318;SDS011;32042;50.916;2.926;2024-03-23T09:52:47;5.50;;;1.20;;
46318;SDS011;32042;50.916;2.926;2024-03-23T09:55:13;5.37;;;1.30;;
46318;SDS011;32042;50.916;2.926;2024-03-23T09:57:40;6.77;;;1.20;;
46318;SDS011;32042;50.916;2.926;2024-03-23T10:00:06;4.37;;;0.90;;
46318;SDS011;32042;50.916;2.926;2024-03-23T10:02:33;5.17;;;1.10;;
46318;SDS011;32042;50.916;2.926;2024-03-23T10:05:00;5.07;;;1.07;;
46318;SDS011;32042;50.916;2.926;2024-03-23T10:07:26;1.23;;;0.50;;
46318;SDS011;32042;50.916;2.926;2024-03-23T10:09:55;4.07;;;0.83;;
46318;SDS011;32042;50.916;2.926;2024-03-23T10:12:22;3.10;;;0.90;;
46318;SDS011;32042;50.916;2.926;2024-03-23T10:14:48;2.00;;;0.63;;
46318;SDS011;32042;50.916;2.926;2024-03-23T10:17:21;4.63;;;1.17;;
46318;SDS011;32042;50.916;2.926;2024-03-23T10:19:51;2.33;;;1.07;;
46318;SDS011;32042;50.916;2.926;2024-03-23T10:22:18;2.67;;;0.60;;
46318;SDS011;32042;50.916;2.926;2024-03-23T10:24:45;3.00;;;0.50;;
46318;SDS011;32042;50.916;2.926;2024-03-23T10:29:46;4.37;;;1.00;;
46318;SDS011;32042;50.916;2.926;2024-03-23T10:32:14;5.87;;;1.10;;
46318;SDS011;32042;50.916;2.926;2024-03-23T10:34:43;5.63;;;1.37;;
46318;SDS011;32042;50.916;2.926;2024-03-23T10:37:10;3.43;;;1.10;;
46318;SDS011;32042;50.916;2.926;2024-03-23T10:39:36;6.63;;;0.63;;
46318;SDS011;32042;50.916;2.926;2024-03-23T10:42:04;4.13;;;1.40;;
46318;SDS011;32042;50.916;2.926;2024-03-23T10:44:31;5.13;;;1.13;;
46318;SDS011;32042;50.916;2.926;2024-03-23T10:46:57;7.00;;;1.70;;
46318;SDS011;32042;50.916;2.926;2024-03-23T10:49:31;4.60;;;0.80;;
46318;SDS011;32042;50.916;2.926;2024-03-23T10:51:58;5.63;;;1.30;;
46318;SDS011;32042;50.916;2.926;2024-03-23T10:54:27;5.57;;;0.97;;
46318;SDS011;32042;50.916;2.926;2024-03-23T10:59:32;6.30;;;1.20;;
46318;SDS011;32042;50.916;2.926;2024-03-23T11:02:01;5.27;;;0.90;;
46318;SDS011;32042;50.916;2.926;2024-03-23T11:04:30;3.47;;;0.90;;
46318;SDS011;32042;50.916;2.926;2024-03-23T11:06:58;7.07;;;1.23;;
46318;SDS011;32042;50.916;2.926;2024-03-23T11:09:42;4.23;;;1.10;;
46318;SDS011;32042;50.916;2.926;2024-03-23T11:12:17;5.20;;;1.00;;
46318;SDS011;32042;50.916;2.926;2024-03-23T11:14:57;3.37;;;1.33;;
46318;SDS011;32042;50.916;2.926;2024-03-23T11:17:30;6.97;;;1.47;;
46318;SDS011;32042;50.916;2.926;2024-03-23T11:20:00;3.57;;;0.80;;
46318;SDS011;32042;50.916;2.926;2024-03-23T11:27:41;3.23;;;0.90;;
46318;SDS011;32042;50.916;2.926;2024-03-23T11:33:03;2.80;;;1.23;;
46318;SDS011;32042;50.916;2.926;2024-03-23T11:38:11;5.60;;;1.50;;
46318;SDS011;32042;50.916;2.926;2024-03-23T11:40:39;3.97;;;1.43;;
46318;SDS011;32042;50.916;2.926;2024-03-23T11:43:07;3.10;;;1.20;;
46318;SDS011;32042;50.916;2.926;2024-03-23T11:45:37;5.03;;;0.80;;
46318;SDS011;32042;50.916;2.926;2024-03-23T11:48:06;2.27;;;1.03;;
46318;SDS011;32042;50.916;2.926;2024-03-23T11:50:33;2.57;;;0.80;;
46318;SDS011;32042;50.916;2.926;2024-03-23T11:55:43;4.87;;;1.77;;
46318;SDS011;32042;50.916;2.926;2024-03-23T11:58:36;4.57;;;1.13;;
46318;SDS011;32042;50.916;2.926;2024-03-23T12:01:02;4.83;;;0.90;;
46318;SDS011;32042;50.916;2.926;2024-03-23T12:03:29;6.37;;;1.33;;
46318;SDS011;32042;50.916;2.926;2024-03-23T12:05:56;3.20;;;0.90;;
46318;SDS011;32042;50.916;2.926;2024-03-23T12:08:31;3.90;;;1.00;;
46318;SDS011;32042;50.916;2.926;2024-03-23T12:13:36;7.33;;;1.80;;
46318;SDS011;32042;50.916;2.926;2024-03-23T12:16:09;3.03;;;0.90;;
46318;SDS011;32042;50.916;2.926;2024-03-23T12:18:37;2.57;;;1.00;;
46318;SDS011;32042;50.916;2.926;2024-03-23T12:21:05;7.40;;;1.57;;
46318;SDS011;32042;50.916;2.926;2024-03-23T12:23:31;3.20;;;1.10;;
46318;SDS011;32042;50.916;2.926;2024-03-23T12:25:57;4.93;;;1.23;;
46318;SDS011;32042;50.916;2.926;2024-03-23T12:28:23;0.87;;;0.40;;
46318;SDS011;32042;50.916;2.926;2024-03-23T12:30:49;2.07;;;1.03;;
46318;SDS011;32042;50.916;2.926;2024-03-23T12:33:15;3.27;;;0.87;;
46318;SDS011;32042;50.916;2.926;2024-03-23T12:35:41;4.03;;;1.33;;
46318;SDS011;32042;50.916;2.926;2024-03-23T12:38:06;7.27;;;1.30;;
46318;SDS011;32042;50.916;2.926;2024-03-23T12:40:32;4.27;;;1.00;;
46318;SDS011;32042;50.916;2.926;2024-03-23T12:42:58;2.40;;;0.90;;
46318;SDS011;32042;50.916;2.926;2024-03-23T12:45:23;4.73;;;1.43;;
46318;SDS011;32042;50.916;2.926;2024-03-23T12:47:49;3.13;;;0.57;;
46318;SDS011;32042;50.916;2.926;2024-03-23T12:50:17;8.03;;;1.37;;
46318;SDS011;32042;50.916;2.926;2024-03-23T12:52:43;3.93;;;0.80;;
46318;SDS011;32042;50.916;2.926;2024-03-23T12:55:09;3.17;;;0.97;;
46318;SDS011;32042;50.916;2.926;2024-03-23T12:57:34;2.00;;;0.57;;
46318;SDS011;32042;50.916;2.926;2024-03-23T13:00:01;2.80;;;0.93;;
46318;SDS011;32042;50.916;2.926;2024-03-23T13:02:28;5.23;;;1.30;;
46318;SDS011;32042;50.916;2.926;2024-03-23T13:04:54;7.00;;;0.97;;
46318;SDS011;32042;50.916;2.926;2024-03-23T13:07:21;7.93;;;1.17;;
46318;SDS011;32042;50.916;2.926;2024-03-23T13:09:50;2.33;;;0.70;;
46318;SDS011;32042;50.916;2.926;2024-03-23T13:12:16;3.40;;;1.37;;
46318;SDS011;32042;50.916;2.926;2024-03-23T13:14:43;2.43;;;1.07;;
46318;SDS011;32042;50.916;2.926;2024-03-23T13:17:09;4.77;;;1.27;;
46318;SDS011;32042;50.916;2.926;2024-03-23T13:19:35;6.67;;;1.37;;
46318;SDS011;32042;50.916;2.926;2024-03-23T13:22:01;5.20;;;1.53;;
46318;SDS011;32042;50.916;2.926;2024-03-23T13:24:27;5.23;;;0.83;;
46318;SDS011;32042;50.916;2.926;2024-03-23T13:26:57;3.00;;;0.87;;
46318;SDS011;32042;50.916;2.926;2024-03-23T13:29:25;4.77;;;1.00;;
46318;SDS011;32042;50.916;2.926;2024-03-23T13:31:52;2.20;;;0.50;;
46318;SDS011;32042;50.916;2.926;2024-03-23T13:34:18;6.07;;;1.13;;
46318;SDS011;32042;50.916;2.926;2024-03-23T13:36:45;9.80;;;1.20;;
46318;SDS011;32042;50.916;2.926;2024-03-23T13:39:11;4.90;;;0.70;;
46318;SDS011;32042;50.916;2.926;2024-03-23T13:44:04;1.63;;;0.80;;
46318;SDS011;32042;50.916;2.926;2024-03-23T13:46:31;2.67;;;0.80;;
46318;SDS011;32042;50.916;2.926;2024-03-23T13:48:57;4.20;;;1.07;;
46318;SDS011;32042;50.916;2.926;2024-03-23T13:51:23;2.73;;;0.43;;
46318;SDS011;32042;50.916;2.926;2024-03-23T13:53:56;8.40;;;1.00;;
46318;SDS011;32042;50.916;2.926;2024-03-23T13:56:22;3.60;;;1.47;;
46318;SDS011;32042;50.916;2.926;2024-03-23T13:58:48;1.13;;;0.90;;
46318;SDS011;32042;50.916;2.926;2024-03-23T14:01:15;4.30;;;1.47;;
46318;SDS011;32042;50.916;2.926;2024-03-23T14:03:41;5.10;;;1.07;;
46318;SDS011;32042;50.916;2.926;2024-03-23T14:06:08;4.33;;;1.53;;
46318;SDS011;32042;50.916;2.926;2024-03-23T14:08:37;6.67;;;1.47;;
46318;SDS011;32042;50.916;2.926;2024-03-23T14:11:06;1.57;;;0.50;;
46318;SDS011;32042;50.916;2.926;2024-03-23T14:13:36;3.80;;;0.70;;
46318;SDS011;32042;50.916;2.926;2024-03-23T14:16:02;2.43;;;1.10;;
46318;SDS011;32042;50.916;2.926;2024-03-23T14:18:28;5.40;;;0.93;;
46318;SDS011;32042;50.916;2.926;2024-03-23T14:21:00;10.67;;;1.57;;
46318;SDS011;32042;50.916;2.926;2024-03-23T14:23:26;4.03;;;0.87;;
46318;SDS011;32042;50.916;2.926;2024-03-23T14:25:54;4.83;;;1.03;;
46318;SDS011;32042;50.916;2.926;2024-03-23T14:28:21;3.93;;;1.00;;
46318;SDS011;32042;50.916;2.926;2024-03-23T14:30:50;5.30;;;0.70;;
46318;SDS011;32042;50.916;2.926;2024-03-23T14:33:17;4.60;;;1.20;;
46318;SDS011;32042;50.916;2.926;2024-03-23T14:35:43;4.03;;;1.07;;
46318;SDS011;32042;50.916;2.926;2024-03-23T14:38:24;2.40;;;1.10;;
46318;SDS011;32042;50.916;2.926;2024-03-23T14:40:50;5.43;;;1.00;;
46318;SDS011;32042;50.916;2.926;2024-03-23T14:43:19;3.10;;;0.80;;
46318;SDS011;32042;50.916;2.926;2024-03-23T14:48:39;3.80;;;1.40;;
46318;SDS011;32042;50.916;2.926;2024-03-23T14:51:06;4.57;;;1.00;;
46318;SDS011;32042;50.916;2.926;2024-03-23T14:53:35;4.87;;;1.03;;
46318;SDS011;32042;50.916;2.926;2024-03-23T14:56:06;7.70;;;1.50;;
46318;SDS011;32042;50.916;2.926;2024-03-23T14:58:32;2.93;;;1.10;;
46318;SDS011;32042;50.916;2.926;2024-03-23T15:01:06;5.90;;;1.07;;
46318;SDS011;32042;50.916;2.926;2024-03-23T15:03:39;14.50;;;1.20;;
46318;SDS011;32042;50.916;2.926;2024-03-23T15:06:06;4.53;;;1.10;;
46318;SDS011;32042;50.916;2.926;2024-03-23T15:08:34;0.93;;;0.60;;
46318;SDS011;32042;50.916;2.926;2024-03-23T15:11:01;3.83;;;0.63;;
46318;SDS011;32042;50.916;2.926;2024-03-23T15:13:33;2.83;;;0.80;;
46318;SDS011;32042;50.916;2.926;2024-03-23T15:15:59;7.87;;;0.60;;
46318;SDS011;32042;50.916;2.926;2024-03-23T15:18:25;1.97;;;0.83;;
46318;SDS011;32042;50.916;2.926;2024-03-23T15:20:52;6.57;;;1.20;;
46318;SDS011;32042;50.916;2.926;2024-03-23T15:23:18;3.27;;;1.00;;
46318;SDS011;32042;50.916;2.926;2024-03-23T15:25:44;3.83;;;0.87;;
46318;SDS011;32042;50.916;2.926;2024-03-23T15:28:09;2.13;;;0.80;;
46318;SDS011;32042;50.916;2.926;2024-03-23T15:30:35;5.93;;;1.10;;
46318;SDS011;32042;50.916;2.926;2024-03-23T15:33:01;4.63;;;0.90;;
46318;SDS011;32042;50.916;2.926;2024-03-23T15:35:27;8.03;;;0.80;;
46318;SDS011;32042;50.916;2.926;2024-03-23T15:37:53;4.43;;;0.70;;
46318;SDS011;32042;50.916;2.926;2024-03-23T15:40:19;7.03;;;1.27;;
46318;SDS011;32042;50.916;2.926;2024-03-23T15:42:45;5.27;;;1.13;;
46318;SDS011;32042;50.916;2.926;2024-03-23T15:45:10;2.80;;;1.07;;
46318;SDS011;32042;50.916;2.926;2024-03-23T15:47:36;3.17;;;0.97;;
46318;SDS011;32042;50.916;2.926;2024-03-23T15:50:02;4.80;;;0.73;;
46318;SDS011;32042;50.916;2.926;2024-03-23T15:52:33;4.37;;;1.03;;
46318;SDS011;32042;50.916;2.926;2024-03-23T15:55:00;5.73;;;1.13;;
46318;SDS011;32042;50.916;2.926;2024-03-23T15:57:27;6.80;;;1.20;;
46318;SDS011;32042;50.916;2.926;2024-03-23T15:59:52;4.03;;;1.07;;
46318;SDS011;32042;50.916;2.926;2024-03-23T16:02:18;5.43;;;0.90;;
46318;SDS011;32042;50.916;2.926;2024-03-23T16:04:44;6.47;;;0.93;;
46318;SDS011;32042;50.916;2.926;2024-03-23T16:07:10;3.47;;;1.07;;
46318;SDS011;32042;50.916;2.926;2024-03-23T16:09:38;3.33;;;0.80;;